Airport View

Enter AWOS ICAO identifier for current METAR.

ex. KFNL

KBIX 031656Z AUTO 00000KT 10SM CLR 30/23 A2996 RMK AO2 SLP148 T03020228 $

3 Jul 2020 17:16

Other Area AWOS: KGPT - KPQL - KHSA - KMJD

TAF KBIX 030200Z 0302/0408 29006KT 9999 BKN040 QNH2989INS BECMG 0317/0318 VRB06KT 8000 -SHRA BKN030 QNH2985INS TEMPO 0320/0323 VRB15G25KT 4800 -TSRA BKN030CB TX30/0318Z TN25/0312Z LAST NO AMDS AFT 0304 NEXT 0710